Time;durP1;ratioP1;P1;durP2;ratioP2;P2;SDS_P1;SDS_P2;PMS_P1;PMS_P2;Temp;Humidity;BMP_temperature;BMP_pressure;BME280_temperature;BME280_humidity;BME280_pressure;Samples;Min_cycle;Max_cycle;Signal;HPM_P1;HPM_P2
2023/02/18 00:02:18;;;;;;;6.75;1.00;;;;;;;;;;4988419;28;20030;-80
2023/02/18 00:04:44;;;;;;;1.52;1.10;;;;;;;;;;4988894;28;20104;-79
2023/02/18 00:07:10;;;;;;;1.73;0.80;;;;;;;;;;4989648;28;20736;-80
2023/02/18 00:09:37;;;;;;;4.13;1.45;;;;;;;;;;4988452;28;20058;-80
2023/02/18 00:12:06;;;;;;;0.98;0.75;;;;;;;;;;4988195;28;20125;-80
2023/02/18 00:14:32;;;;;;;0.55;0.50;;;;;;;;;;4989166;28;20081;-80
2023/02/18 00:16:57;;;;;;;2.95;0.82;;;;;;;;;;4990026;28;20034;-80
2023/02/18 00:19:23;;;;;;;0.93;0.82;;;;;;;;;;4988086;28;20040;-80
2023/02/18 00:21:49;;;;;;;1.50;1.00;;;;;;;;;;4988460;28;20029;-80
2023/02/18 00:24:16;;;;;;;2.95;0.77;;;;;;;;;;4987063;28;20444;-80
2023/02/18 00:26:42;;;;;;;1.30;0.70;;;;;;;;;;4984923;28;20037;-80
2023/02/18 00:29:07;;;;;;;2.65;1.25;;;;;;;;;;4980954;28;20034;-80
2023/02/18 00:31:35;;;;;;;1.83;0.68;;;;;;;;;;4984793;28;20030;-80
2023/02/18 00:34:01;;;;;;;5.75;1.25;;;;;;;;;;4985785;28;20030;-79
2023/02/18 00:36:27;;;;;;;1.88;1.00;;;;;;;;;;4989539;28;20090;-80
2023/02/18 00:38:55;;;;;;;1.55;0.70;;;;;;;;;;4988610;28;20105;-79
2023/02/18 00:41:22;;;;;;;1.70;0.90;;;;;;;;;;4987229;28;20034;-80
2023/02/18 00:43:48;;;;;;;2.90;1.17;;;;;;;;;;4987728;28;20034;-80
2023/02/18 00:46:14;;;;;;;3.63;0.60;;;;;;;;;;4987376;28;20039;-80
2023/02/18 00:48:40;;;;;;;1.63;0.82;;;;;;;;;;4988658;28;20046;-79
2023/02/18 00:51:06;;;;;;;1.27;0.43;;;;;;;;;;4987415;28;20132;-81
2023/02/18 00:53:33;;;;;;;3.90;0.90;;;;;;;;;;4987108;28;20045;-80
2023/02/18 00:55:59;;;;;;;3.17;0.95;;;;;;;;;;4985289;28;20037;-80
2023/02/18 00:58:25;;;;;;;2.42;0.68;;;;;;;;;;4983852;28;20037;-80
2023/02/18 01:00:51;;;;;;;1.00;0.90;;;;;;;;;;4987370;28;20444;-81
2023/02/18 01:03:17;;;;;;;1.40;0.73;;;;;;;;;;4985609;28;20409;-80
2023/02/18 01:05:44;;;;;;;2.58;0.95;;;;;;;;;;4983007;28;20046;-81
2023/02/18 01:08:11;;;;;;;2.35;1.02;;;;;;;;;;4986997;28;20045;-80
2023/02/18 01:10:40;;;;;;;3.00;0.70;;;;;;;;;;4985187;28;20084;-80
2023/02/18 01:13:06;;;;;;;1.58;0.70;;;;;;;;;;4989148;28;20041;-81
2023/02/18 01:15:32;;;;;;;4.72;1.05;;;;;;;;;;4983993;28;20405;-80
2023/02/18 01:17:58;;;;;;;0.80;0.75;;;;;;;;;;4983717;28;20062;-81
2023/02/18 01:20:24;;;;;;;2.13;0.80;;;;;;;;;;4987802;28;20110;-81
2023/02/18 01:22:50;;;;;;;1.80;1.15;;;;;;;;;;4988745;28;20110;-81
2023/02/18 01:25:15;;;;;;;4.35;1.10;;;;;;;;;;4988010;28;20137;-80
2023/02/18 01:27:41;;;;;;;1.30;0.63;;;;;;;;;;4988609;28;20026;-80
2023/02/18 01:30:08;;;;;;;2.00;0.80;;;;;;;;;;4986776;28;20110;-80
2023/02/18 01:32:34;;;;;;;1.33;0.80;;;;;;;;;;4985038;28;20242;-81
2023/02/18 01:35:01;;;;;;;0.70;0.52;;;;;;;;;;4987172;28;20112;-82
2023/02/18 01:37:27;;;;;;;1.88;0.65;;;;;;;;;;4986931;28;20053;-81
2023/02/18 01:39:53;;;;;;;0.85;0.52;;;;;;;;;;4987644;28;20114;-81
2023/02/18 01:42:20;;;;;;;1.35;0.73;;;;;;;;;;4986855;28;20493;-81
2023/02/18 01:44:47;;;;;;;0.73;0.50;;;;;;;;;;4987213;28;20026;-81
2023/02/18 01:47:13;;;;;;;3.42;0.88;;;;;;;;;;4986508;28;20085;-81
2023/02/18 01:49:39;;;;;;;1.80;0.85;;;;;;;;;;4986233;28;20045;-81
2023/02/18 01:52:11;;;;;;;1.58;0.77;;;;;;;;;;4987298;28;20108;-81
2023/02/18 01:54:40;;;;;;;2.53;0.70;;;;;;;;;;4986900;28;20026;-81
2023/02/18 01:57:07;;;;;;;0.75;0.50;;;;;;;;;;4986105;28;20166;-82
2023/02/18 01:59:36;;;;;;;0.88;0.60;;;;;;;;;;4987217;28;20058;-81
2023/02/18 02:02:03;;;;;;;1.23;0.70;;;;;;;;;;4983051;28;20046;-81
2023/02/18 02:04:29;;;;;;;0.80;0.47;;;;;;;;;;4986497;28;20137;-81
2023/02/18 02:06:55;;;;;;;1.15;0.50;;;;;;;;;;4987141;28;20040;-81
2023/02/18 02:09:23;;;;;;;2.30;0.73;;;;;;;;;;4986078;28;20046;-81
2023/02/18 02:12:08;;;;;;;1.27;0.50;;;;;;;;;;4987099;28;20067;-81
2023/02/18 02:14:47;;;;;;;2.00;0.80;;;;;;;;;;4985325;28;20041;-82
2023/02/18 02:17:30;;;;;;;1.13;0.68;;;;;;;;;;4986504;28;20485;-80
2023/02/18 02:20:23;;;;;;;1.38;0.40;;;;;;;;;;4987429;28;20129;-79
2023/02/18 02:23:10;;;;;;;2.42;0.55;;;;;;;;;;4987224;28;20045;-80
2023/02/18 02:25:46;;;;;;;0.85;0.50;;;;;;;;;;4985647;28;20049;-81
2023/02/18 02:28:12;;;;;;;0.77;0.50;;;;;;;;;;4986889;28;20045;-80
2023/02/18 02:30:51;;;;;;;1.13;0.50;;;;;;;;;;4988060;28;20035;-80
2023/02/18 02:33:24;;;;;;;2.75;0.70;;;;;;;;;;4987430;28;20033;-81
2023/02/18 02:35:50;;;;;;;1.33;0.60;;;;;;;;;;4986744;28;20056;-80
2023/02/18 02:38:23;;;;;;;1.67;0.50;;;;;;;;;;4986534;28;20025;-81
2023/02/18 02:40:54;;;;;;;0.40;0.40;;;;;;;;;;4985817;28;20034;-81
2023/02/18 02:43:26;;;;;;;1.73;0.75;;;;;;;;;;4984717;28;20038;-80
2023/02/18 02:45:52;;;;;;;;;;;;;;;;;;4987339;28;20034;-81
2023/02/18 02:48:36;;;;;;;1.38;0.60;;;;;;;;;;4985217;28;20400;-80
2023/02/18 02:51:06;;;;;;;1.08;0.65;;;;;;;;;;4987347;28;20045;-81
2023/02/18 02:53:34;;;;;;;1.08;0.52;;;;;;;;;;4987409;28;20037;-81
2023/02/18 02:56:00;;;;;;;0.30;0.30;;;;;;;;;;4985782;28;20477;-81
2023/02/18 02:58:26;;;;;;;0.77;0.52;;;;;;;;;;4985883;28;20477;-80
2023/02/18 03:01:00;;;;;;;4.38;0.73;;;;;;;;;;4984646;28;20085;-80
2023/02/18 03:03:39;;;;;;;1.55;0.52;;;;;;;;;;4985013;28;20041;-80
2023/02/18 03:06:21;;;;;;;4.05;0.75;;;;;;;;;;4986005;28;20053;-80
2023/02/18 03:09:00;;;;;;;0.75;0.50;;;;;;;;;;4986003;28;20050;-78
2023/02/18 03:11:29;;;;;;;0.85;0.50;;;;;;;;;;4985354;28;20026;-79
2023/02/18 03:14:18;;;;;;;1.25;0.85;;;;;;;;;;4985927;28;20040;-79
2023/02/18 03:16:44;;;;;;;1.92;0.60;;;;;;;;;;4985809;28;20042;-79
2023/02/18 03:19:26;;;;;;;1.25;0.70;;;;;;;;;;4985291;28;20392;-79
2023/02/18 03:22:12;;;;;;;2.13;0.50;;;;;;;;;;4987495;28;20045;-79
2023/02/18 03:24:40;;;;;;;0.77;0.40;;;;;;;;;;4988563;28;20130;-79
2023/02/18 03:27:12;;;;;;;3.88;0.73;;;;;;;;;;4989893;28;20118;-79
2023/02/18 03:29:39;;;;;;;2.65;0.50;;;;;;;;;;4990106;28;20038;-79
2023/02/18 03:32:07;;;;;;;1.58;0.90;;;;;;;;;;4987703;28;20224;-79
2023/02/18 03:34:36;;;;;;;1.70;0.75;;;;;;;;;;4986747;28;20049;-78
2023/02/18 03:37:02;;;;;;;1.45;0.70;;;;;;;;;;4988796;28;20034;-79
2023/02/18 03:39:29;;;;;;;0.98;0.68;;;;;;;;;;4989488;28;20029;-79
2023/02/18 03:41:55;;;;;;;0.40;0.40;;;;;;;;;;4988168;28;20097;-79
2023/02/18 03:44:21;;;;;;;1.05;0.70;;;;;;;;;;4987914;28;20481;-79
2023/02/18 03:47:05;;;;;;;1.33;0.77;;;;;;;;;;4987523;28;20489;-79
2023/02/18 03:49:31;;;;;;;1.73;0.55;;;;;;;;;;4988947;28;20080;-79
2023/02/18 03:51:57;;;;;;;0.60;0.60;;;;;;;;;;4989659;28;20405;-79
2023/02/18 03:54:22;;;;;;;0.95;0.43;;;;;;;;;;4989586;28;20505;-79
2023/02/18 03:56:48;;;;;;;4.07;0.85;;;;;;;;;;4989058;28;20181;-79
2023/02/18 03:59:14;;;;;;;0.80;0.50;;;;;;;;;;4993278;28;20029;-79
2023/02/18 04:01:40;;;;;;;1.95;0.52;;;;;;;;;;4994416;28;20026;-79
2023/02/18 04:04:06;;;;;;;0.30;0.30;;;;;;;;;;4986807;28;20042;-79
2023/02/18 04:06:32;;;;;;;0.55;0.55;;;;;;;;;;4988218;28;20049;-79
2023/02/18 04:08:58;;;;;;;1.55;0.60;;;;;;;;;;4988285;28;20057;-79
2023/02/18 04:11:24;;;;;;;0.52;0.50;;;;;;;;;;4989430;28;20034;-79
2023/02/18 04:13:50;;;;;;;1.17;0.77;;;;;;;;;;4989483;28;20034;-79
2023/02/18 04:16:16;;;;;;;0.85;0.57;;;;;;;;;;4989113;28;20489;-78
2023/02/18 04:18:42;;;;;;;0.82;0.60;;;;;;;;;;4987710;28;20109;-79
2023/02/18 04:21:08;;;;;;;1.00;0.60;;;;;;;;;;4989380;28;20038;-79
2023/02/18 04:23:34;;;;;;;1.23;0.32;;;;;;;;;;4987995;28;20152;-79
2023/02/18 04:26:00;;;;;;;3.47;0.40;;;;;;;;;;4989052;28;20030;-79
2023/02/18 04:28:26;;;;;;;0.70;0.55;;;;;;;;;;4988551;28;20038;-79
2023/02/18 04:30:52;;;;;;;2.03;0.50;;;;;;;;;;4988545;28;20045;-79
2023/02/18 04:33:18;;;;;;;2.25;0.60;;;;;;;;;;4988351;28;20490;-79
2023/02/18 04:35:44;;;;;;;2.20;0.60;;;;;;;;;;4987697;28;20022;-79
2023/02/18 04:38:11;;;;;;;1.48;0.40;;;;;;;;;;4987073;28;20542;-79
2023/02/18 04:40:36;;;;;;;0.40;0.40;;;;;;;;;;4986115;28;20030;-79
2023/02/18 04:43:03;;;;;;;1.40;0.60;;;;;;;;;;4981095;28;20042;-79
2023/02/18 04:45:29;;;;;;;1.45;0.77;;;;;;;;;;4985934;28;20118;-79
2023/02/18 04:47:55;;;;;;;0.80;0.75;;;;;;;;;;4988408;28;20529;-79
2023/02/18 04:50:22;;;;;;;0.82;0.50;;;;;;;;;;4986855;28;20077;-79
2023/02/18 04:52:48;;;;;;;1.55;0.65;;;;;;;;;;4987941;28;20052;-79
2023/02/18 04:55:14;;;;;;;1.23;0.57;;;;;;;;;;4988826;28;20037;-79
2023/02/18 04:57:40;;;;;;;0.45;0.28;;;;;;;;;;4988619;28;20034;-79
2023/02/18 05:00:06;;;;;;;0.20;0.20;;;;;;;;;;4988340;28;20033;-79
2023/02/18 05:02:33;;;;;;;0.70;0.52;;;;;;;;;;4988012;28;20038;-79
2023/02/18 05:04:59;;;;;;;0.60;0.60;;;;;;;;;;4986946;28;20046;-79
2023/02/18 05:07:25;;;;;;;1.98;1.13;;;;;;;;;;4987210;28;20085;-79
2023/02/18 05:09:51;;;;;;;3.30;0.80;;;;;;;;;;4987219;28;20068;-79
2023/02/18 05:12:17;;;;;;;1.40;0.63;;;;;;;;;;4987059;28;20485;-79
2023/02/18 05:14:43;;;;;;;0.52;0.47;;;;;;;;;;4986880;28;20045;-80
2023/02/18 05:17:09;;;;;;;1.65;0.63;;;;;;;;;;4987358;28;20031;-79
2023/02/18 05:19:35;;;;;;;1.75;0.60;;;;;;;;;;4987783;28;20035;-79
2023/02/18 05:22:01;;;;;;;0.90;0.45;;;;;;;;;;4988657;28;20473;-79
2023/02/18 05:24:26;;;;;;;3.65;0.75;;;;;;;;;;4987932;28;20552;-79
2023/02/18 05:26:52;;;;;;;0.63;0.55;;;;;;;;;;4987474;28;20489;-79
2023/02/18 05:29:18;;;;;;;1.05;0.57;;;;;;;;;;4984212;28;20014;-80
2023/02/18 05:31:44;;;;;;;3.88;0.50;;;;;;;;;;4985503;28;20046;-80
2023/02/18 05:34:10;;;;;;;0.70;0.32;;;;;;;;;;4988042;28;20018;-79
2023/02/18 05:36:36;;;;;;;0.73;0.50;;;;;;;;;;4984051;28;20256;-79
2023/02/18 05:39:02;;;;;;;1.30;0.73;;;;;;;;;;4986524;28;20406;-79
2023/02/18 05:41:28;;;;;;;0.55;0.50;;;;;;;;;;4984061;28;20018;-79
2023/02/18 05:46:39;;;;;;;1.00;0.55;;;;;;;;;;4983947;28;20088;-79
2023/02/18 05:49:05;;;;;;;0.52;0.30;;;;;;;;;;4981459;28;20030;-79
2023/02/18 05:51:31;;;;;;;2.28;0.47;;;;;;;;;;4988340;28;20424;-79
2023/02/18 05:53:57;;;;;;;1.73;0.50;;;;;;;;;;4987766;28;22645;-79
2023/02/18 05:56:23;;;;;;;0.52;0.30;;;;;;;;;;4987186;28;20413;-79
2023/02/18 05:58:49;;;;;;;0.73;0.60;;;;;;;;;;4989219;28;20034;-79
2023/02/18 06:01:15;;;;;;;0.35;0.20;;;;;;;;;;4988249;28;20072;-79
2023/02/18 06:03:41;;;;;;;2.38;0.30;;;;;;;;;;4985114;28;20497;-79
2023/02/18 06:06:07;;;;;;;0.30;0.28;;;;;;;;;;4975385;28;20041;-79
2023/02/18 06:08:33;;;;;;;1.35;0.30;;;;;;;;;;4985400;28;20531;-78
2023/02/18 06:11:10;;;;;;;1.05;0.40;;;;;;;;;;4982192;28;20042;-79
2023/02/18 06:13:36;;;;;;;0.30;0.30;;;;;;;;;;4986250;28;20040;-79
2023/02/18 06:16:02;;;;;;;0.60;0.30;;;;;;;;;;4983626;28;20393;-79
2023/02/18 06:18:28;;;;;;;1.70;0.65;;;;;;;;;;4975718;28;20015;-78
2023/02/18 06:20:54;;;;;;;0.65;0.55;;;;;;;;;;4980636;28;20034;-79
2023/02/18 06:23:21;;;;;;;0.57;0.40;;;;;;;;;;4977789;28;20386;-79
2023/02/18 06:25:49;;;;;;;0.77;0.30;;;;;;;;;;4984079;28;20063;-78
2023/02/18 06:28:15;;;;;;;1.75;0.75;;;;;;;;;;4982865;28;20385;-80
2023/02/18 06:30:41;;;;;;;0.55;0.50;;;;;;;;;;4977435;28;20030;-78
2023/02/18 06:33:07;;;;;;;0.35;0.30;;;;;;;;;;4982194;28;20026;-77
2023/02/18 06:35:33;;;;;;;0.40;0.40;;;;;;;;;;4980757;28;20121;-76
2023/02/18 06:37:59;;;;;;;0.40;0.40;;;;;;;;;;4984308;28;20052;-75
2023/02/18 06:40:25;;;;;;;1.50;0.30;;;;;;;;;;4978809;28;20026;-74
2023/02/18 06:42:51;;;;;;;0.60;0.40;;;;;;;;;;4974464;28;20375;-74
2023/02/18 06:45:18;;;;;;;1.10;0.50;;;;;;;;;;4976329;28;20477;-75
2023/02/18 06:47:43;;;;;;;0.50;0.38;;;;;;;;;;4981285;28;20039;-76
2023/02/18 06:50:10;;;;;;;1.02;0.30;;;;;;;;;;4983565;28;20162;-76
2023/02/18 06:52:36;;;;;;;2.17;0.50;;;;;;;;;;4982959;28;20031;-77
2023/02/18 06:55:03;;;;;;;2.70;0.60;;;;;;;;;;4981691;28;20462;-76
2023/02/18 06:57:29;;;;;;;0.47;0.30;;;;;;;;;;4990893;28;20031;-76
2023/02/18 06:59:55;;;;;;;1.38;0.70;;;;;;;;;;4991193;28;20034;-77
2023/02/18 07:02:21;;;;;;;4.40;0.43;;;;;;;;;;4990903;28;20018;-76
2023/02/18 07:04:47;;;;;;;1.23;0.57;;;;;;;;;;4991403;28;20050;-77
2023/02/18 07:07:13;;;;;;;1.10;0.35;;;;;;;;;;4991259;28;20054;-76
2023/02/18 07:09:39;;;;;;;0.60;0.38;;;;;;;;;;4990517;28;20481;-77
2023/02/18 07:12:05;;;;;;;0.30;0.30;;;;;;;;;;4989489;28;20053;-77
2023/02/18 07:14:31;;;;;;;1.48;0.20;;;;;;;;;;5000397;28;20036;-75
2023/02/18 07:16:57;;;;;;;1.80;0.98;;;;;;;;;;4994161;28;20046;-75
2023/02/18 07:19:23;;;;;;;0.52;0.50;;;;;;;;;;4990930;28;20069;-73
2023/02/18 07:21:49;;;;;;;0.50;0.40;;;;;;;;;;4991111;28;20552;-73
2023/02/18 07:24:14;;;;;;;0.32;0.32;;;;;;;;;;4990191;28;20597;-74
2023/02/18 07:26:40;;;;;;;1.67;0.50;;;;;;;;;;4989505;28;20062;-73
2023/02/18 07:29:06;;;;;;;0.38;0.38;;;;;;;;;;4990978;28;20034;-73
2023/02/18 07:31:32;;;;;;;1.55;0.28;;;;;;;;;;4988049;28;20026;-73
2023/02/18 07:33:58;;;;;;;0.10;0.10;;;;;;;;;;4988257;28;20027;-73
2023/02/18 07:36:24;;;;;;;0.70;0.50;;;;;;;;;;4990461;28;20050;-73
2023/02/18 07:38:50;;;;;;;0.60;0.30;;;;;;;;;;4988836;28;20088;-73
2023/02/18 07:41:17;;;;;;;0.30;0.30;;;;;;;;;;4996654;28;20026;-73
2023/02/18 07:43:43;;;;;;;1.98;0.88;;;;;;;;;;4993879;28;20413;-73
2023/02/18 07:46:09;;;;;;;1.65;0.60;;;;;;;;;;4993739;28;20038;-73
2023/02/18 07:48:35;;;;;;;0.47;0.20;;;;;;;;;;4994210;28;20481;-73
2023/02/18 07:51:05;;;;;;;0.98;0.35;;;;;;;;;;4997382;28;20088;-73
2023/02/18 07:53:31;;;;;;;2.20;0.17;;;;;;;;;;4993615;28;20062;-73
2023/02/18 07:56:00;;;;;;;1.45;0.30;;;;;;;;;;4994262;28;20097;-74
2023/02/18 07:58:27;;;;;;;1.90;0.70;;;;;;;;;;5003038;28;20075;-73
2023/02/18 08:00:54;;;;;;;0.40;0.30;;;;;;;;;;4984985;28;20019;-81
2023/02/18 08:03:30;;;;;;;0.95;0.50;;;;;;;;;;4998888;28;20029;-76
2023/02/18 08:05:57;;;;;;;3.35;0.70;;;;;;;;;;4991661;28;20061;-77
2023/02/18 08:08:24;;;;;;;1.65;0.57;;;;;;;;;;4992266;28;20049;-77
2023/02/18 08:10:50;;;;;;;3.85;0.45;;;;;;;;;;4989258;28;20038;-78
2023/02/18 08:13:17;;;;;;;1.38;0.60;;;;;;;;;;4994683;28;20064;-77
2023/02/18 08:15:43;;;;;;;0.45;0.25;;;;;;;;;;4989767;28;20038;-80
2023/02/18 08:18:14;;;;;;;2.10;0.50;;;;;;;;;;4993487;28;20113;-78
2023/02/18 08:20:40;;;;;;;0.32;0.32;;;;;;;;;;4977175;28;20090;-76
2023/02/18 08:23:06;;;;;;;1.92;0.40;;;;;;;;;;4990619;28;20075;-74
2023/02/18 08:25:32;;;;;;;2.30;0.60;;;;;;;;;;4986864;28;20511;-80
2023/02/18 08:27:58;;;;;;;0.40;0.40;;;;;;;;;;4985780;28;20114;-76
2023/02/18 08:30:25;;;;;;;0.68;0.55;;;;;;;;;;4977280;28;20042;-76
2023/02/18 08:32:51;;;;;;;0.32;0.32;;;;;;;;;;4981391;28;20477;-74
2023/02/18 08:35:17;;;;;;;0.60;0.43;;;;;;;;;;4983479;28;20088;-73
2023/02/18 08:37:43;;;;;;;0.73;0.43;;;;;;;;;;4987057;28;20033;-74
2023/02/18 08:40:11;;;;;;;0.50;0.50;;;;;;;;;;4994073;28;20035;-74
2023/02/18 08:42:37;;;;;;;0.50;0.30;;;;;;;;;;4980554;28;20045;-75
2023/02/18 08:45:04;;;;;;;1.10;0.57;;;;;;;;;;4995702;28;20041;-74
2023/02/18 08:47:30;;;;;;;1.45;0.47;;;;;;;;;;4983794;28;20038;-79
2023/02/18 08:49:56;;;;;;;1.65;0.60;;;;;;;;;;4994133;28;20498;-80
2023/02/18 08:52:22;;;;;;;5.03;1.30;;;;;;;;;;4989564;28;20053;-78
2023/02/18 08:54:48;;;;;;;1.60;0.57;;;;;;;;;;4984806;28;20035;-78
2023/02/18 08:57:14;;;;;;;0.50;0.50;;;;;;;;;;4980776;28;20030;-76
2023/02/18 08:59:40;;;;;;;2.13;0.88;;;;;;;;;;4991534;28;20026;-79
2023/02/18 09:02:06;;;;;;;0.40;0.40;;;;;;;;;;4987894;28;20141;-78
2023/02/18 09:04:32;;;;;;;2.85;0.40;;;;;;;;;;4989074;28;20045;-77
2023/02/18 09:06:58;;;;;;;0.65;0.45;;;;;;;;;;4980350;28;20026;-78
2023/02/18 09:09:24;;;;;;;0.28;0.28;;;;;;;;;;4981378;28;20112;-78
2023/02/18 09:11:50;;;;;;;0.30;0.30;;;;;;;;;;4986018;28;20033;-76
2023/02/18 09:14:16;;;;;;;2.80;0.50;;;;;;;;;;4990328;28;20034;-77
2023/02/18 09:16:42;;;;;;;0.82;0.43;;;;;;;;;;4988327;28;20065;-77
2023/02/18 09:19:08;;;;;;;0.65;0.65;;;;;;;;;;4979861;28;20129;-77
2023/02/18 09:21:35;;;;;;;0.63;0.30;;;;;;;;;;4982972;28;20027;-76
2023/02/18 09:24:00;;;;;;;0.20;0.20;;;;;;;;;;4980484;28;20062;-77
2023/02/18 09:26:27;;;;;;;5.63;0.77;;;;;;;;;;4984592;28;20035;-76
2023/02/18 09:28:54;;;;;;;0.95;0.30;;;;;;;;;;4985504;28;20037;-75
2023/02/18 09:31:21;;;;;;;1.30;0.40;;;;;;;;;;4999181;28;20033;-76
2023/02/18 09:33:49;;;;;;;0.47;0.45;;;;;;;;;;4974001;28;20065;-76
2023/02/18 09:36:15;;;;;;;0.50;0.30;;;;;;;;;;4980785;28;20706;-79
2023/02/18 09:38:41;;;;;;;5.78;0.55;;;;;;;;;;4983760;28;20393;-82
2023/02/18 09:41:22;;;;;;;1.20;0.55;;;;;;;;;;4982692;28;20062;-75
2023/02/18 09:43:50;;;;;;;0.40;0.30;;;;;;;;;;4985155;28;20080;-75
2023/02/18 09:46:21;;;;;;;3.00;0.90;;;;;;;;;;4991425;28;20129;-75
2023/02/18 09:48:47;;;;;;;1.35;0.43;;;;;;;;;;4986208;28;20254;-74
2023/02/18 09:51:14;;;;;;;5.20;0.40;;;;;;;;;;4979290;28;20060;-75
2023/02/18 09:53:44;;;;;;;0.70;0.25;;;;;;;;;;4997879;28;20485;-75
2023/02/18 09:56:11;;;;;;;0.98;0.43;;;;;;;;;;4994924;28;20030;-75
2023/02/18 09:58:37;;;;;;;1.02;0.43;;;;;;;;;;4991108;28;20034;-75
2023/02/18 10:01:05;;;;;;;1.17;0.30;;;;;;;;;;4983208;28;20426;-75
2023/02/18 10:03:31;;;;;;;1.27;0.25;;;;;;;;;;4986200;28;20439;-79
2023/02/18 10:06:00;;;;;;;1.15;0.35;;;;;;;;;;4988762;28;20565;-79
2023/02/18 10:08:37;;;;;;;1.40;0.40;;;;;;;;;;4991301;28;20036;-79
2023/02/18 10:11:03;;;;;;;1.95;0.55;;;;;;;;;;4986810;28;20070;-79
2023/02/18 10:13:30;;;;;;;0.60;0.40;;;;;;;;;;4984817;28;20117;-79
2023/02/18 10:15:56;;;;;;;1.83;0.55;;;;;;;;;;4983454;28;20044;-79
2023/02/18 10:18:25;;;;;;;0.40;0.40;;;;;;;;;;4979477;28;20053;-79
2023/02/18 10:20:55;;;;;;;0.82;0.60;;;;;;;;;;4983904;28;20130;-83
2023/02/18 10:23:28;;;;;;;0.65;0.47;;;;;;;;;;4982406;28;20117;-82
2023/02/18 10:25:55;;;;;;;1.88;0.68;;;;;;;;;;4988593;28;20436;-74
2023/02/18 10:28:24;;;;;;;2.15;0.95;;;;;;;;;;4981260;28;20034;-75
2023/02/18 10:30:57;;;;;;;1.45;0.45;;;;;;;;;;4988134;28;20022;-76
2023/02/18 10:33:31;;;;;;;3.63;0.90;;;;;;;;;;4990052;28;20081;-77
2023/02/18 10:36:02;;;;;;;2.17;0.50;;;;;;;;;;4983610;28;20658;-76
2023/02/18 10:38:37;;;;;;;0.93;0.63;;;;;;;;;;4971854;28;20031;-77
2023/02/18 10:41:13;;;;;;;2.08;0.80;;;;;;;;;;4983525;28;20030;-79
2023/02/18 10:43:45;;;;;;;4.60;1.10;;;;;;;;;;4973306;28;20038;-76
2023/02/18 10:46:28;;;;;;;28.20;2.45;;;;;;;;;;4982436;28;20031;-76
2023/02/18 10:48:54;;;;;;;3.00;1.17;;;;;;;;;;4992519;28;20030;-76
2023/02/18 10:51:22;;;;;;;12.40;1.85;;;;;;;;;;4993217;28;20080;-76
2023/02/18 10:53:50;;;;;;;2.67;0.68;;;;;;;;;;4977668;28;21764;-75
2023/02/18 10:56:34;;;;;;;4.28;1.83;;;;;;;;;;4982974;28;20034;-76
2023/02/18 10:59:11;;;;;;;6.70;0.82;;;;;;;;;;4976812;28;20029;-75
2023/02/18 11:01:37;;;;;;;3.05;0.90;;;;;;;;;;4983644;28;20078;-76
2023/02/18 11:04:06;;;;;;;5.05;0.70;;;;;;;;;;4967945;28;20400;-76
2023/02/18 11:06:37;;;;;;;9.07;1.35;;;;;;;;;;4975773;28;20031;-75
2023/02/18 11:09:03;;;;;;;6.90;0.85;;;;;;;;;;4979383;28;20040;-75
2023/02/18 11:11:38;;;;;;;1.38;0.57;;;;;;;;;;4974447;28;20113;-76
2023/02/18 11:14:06;;;;;;;2.50;0.63;;;;;;;;;;4977289;28;20080;-75
2023/02/18 11:16:48;;;;;;;3.75;0.90;;;;;;;;;;4974302;28;20105;-76
2023/02/18 11:19:37;;;;;;;2.10;1.05;;;;;;;;;;4976685;28;20033;-76
2023/02/18 11:22:08;;;;;;;5.28;0.98;;;;;;;;;;4972912;28;20027;-76
2023/02/18 11:24:37;;;;;;;4.60;0.90;;;;;;;;;;4986547;28;20029;-76
2023/02/18 11:27:08;;;;;;;8.73;1.08;;;;;;;;;;4978179;28;20031;-76
2023/02/18 11:29:34;;;;;;;1.75;0.85;;;;;;;;;;4977853;28;20490;-75
2023/02/18 11:32:00;;;;;;;8.32;1.77;;;;;;;;;;4976852;28;20393;-76
2023/02/18 11:34:27;;;;;;;1.65;0.70;;;;;;;;;;4976576;28;20038;-75
2023/02/18 11:36:54;;;;;;;3.22;1.08;;;;;;;;;;4982306;28;20106;-75
2023/02/18 11:39:25;;;;;;;4.90;1.77;;;;;;;;;;4978823;28;20038;-76
2023/02/18 11:41:56;;;;;;;3.60;0.93;;;;;;;;;;4979779;28;21074;-77
2023/02/18 11:44:33;;;;;;;7.03;1.48;;;;;;;;;;4972412;28;20030;-77
2023/02/18 11:47:04;;;;;;;3.72;0.90;;;;;;;;;;4978664;28;20030;-76
2023/02/18 11:49:33;;;;;;;6.60;1.20;;;;;;;;;;4985609;28;20153;-76
2023/02/18 11:52:18;;;;;;;10.45;1.27;;;;;;;;;;4985870;28;20477;-76
2023/02/18 11:54:58;;;;;;;1.65;0.77;;;;;;;;;;4990926;28;20026;-76
2023/02/18 11:57:25;;;;;;;8.75;1.17;;;;;;;;;;4982404;28;20500;-76
2023/02/18 11:59:51;;;;;;;5.10;1.35;;;;;;;;;;4980859;28;20113;-76
2023/02/18 12:02:29;;;;;;;4.07;0.98;;;;;;;;;;4984492;28;20080;-76
2023/02/18 12:05:03;;;;;;;1.17;0.80;;;;;;;;;;4981392;28;20103;-76
2023/02/18 12:07:35;;;;;;;3.67;1.23;;;;;;;;;;4980617;28;20034;-76
2023/02/18 12:10:12;;;;;;;1.98;1.25;;;;;;;;;;4983160;28;20080;-76
2023/02/18 12:12:43;;;;;;;1.00;0.88;;;;;;;;;;4981794;28;20169;-76
2023/02/18 12:15:09;;;;;;;;;;;;;;;;;;4974103;28;20041;-76
2023/02/18 12:17:59;;;;;;;9.38;1.40;;;;;;;;;;4985164;28;20361;-76
2023/02/18 12:20:42;;;;;;;3.10;0.90;;;;;;;;;;4986863;28;20026;-76
2023/02/18 12:23:18;;;;;;;5.78;1.20;;;;;;;;;;4988158;28;20065;-76
2023/02/18 12:25:53;;;;;;;3.60;1.20;;;;;;;;;;4977586;28;20105;-76
2023/02/18 12:28:25;;;;;;;1.98;0.98;;;;;;;;;;4993352;28;20041;-76
2023/02/18 12:31:01;;;;;;;6.25;1.60;;;;;;;;;;4984935;28;20034;-76
2023/02/18 12:33:45;;;;;;;2.53;1.42;;;;;;;;;;4990921;28;20037;-76
2023/02/18 12:36:11;;;;;;;7.90;1.33;;;;;;;;;;4994604;28;20722;-76
2023/02/18 12:38:49;;;;;;;5.85;1.20;;;;;;;;;;4973087;28;20033;-75
2023/02/18 12:41:23;;;;;;;1.73;1.25;;;;;;;;;;4988085;28;20026;-76
2023/02/18 12:43:58;;;;;;;1.60;0.93;;;;;;;;;;4982368;28;20153;-76
2023/02/18 12:46:42;;;;;;;4.57;1.38;;;;;;;;;;4988674;28;20049;-76
2023/02/18 12:49:19;;;;;;;5.20;1.80;;;;;;;;;;4982357;28;20798;-76
2023/02/18 12:52:03;;;;;;;6.00;1.27;;;;;;;;;;4982868;28;20116;-75
2023/02/18 12:54:47;;;;;;;3.40;2.33;;;;;;;;;;4989351;28;20149;-76
2023/02/18 12:57:23;;;;;;;4.80;1.73;;;;;;;;;;4976147;28;20027;-75
2023/02/18 12:59:59;;;;;;;5.95;1.30;;;;;;;;;;4979583;28;20381;-76
2023/02/18 13:02:48;;;;;;;4.47;1.92;;;;;;;;;;4984632;28;20034;-82
2023/02/18 13:05:25;;;;;;;1.33;1.23;;;;;;;;;;4989520;28;20038;-84
2023/02/18 13:07:55;;;;;;;1.83;1.17;;;;;;;;;;4986625;28;20117;-73
2023/02/18 13:10:36;;;;;;;5.13;1.85;;;;;;;;;;4981488;28;20030;-76
2023/02/18 13:13:11;;;;;;;8.48;1.65;;;;;;;;;;4971247;28;20035;-76
2023/02/18 13:15:39;;;;;;;5.25;1.88;;;;;;;;;;4987246;28;20066;-77
2023/02/18 13:18:10;;;;;;;6.45;1.67;;;;;;;;;;4974232;28;20030;-75
2023/02/18 13:20:41;;;;;;;2.43;1.50;;;;;;;;;;4976371;28;20040;-75
2023/02/18 13:23:07;;;;;;;;;;;;;;;;;;4985136;28;20342;-77
2023/02/18 13:25:37;;;;;;;7.28;1.45;;;;;;;;;;4985242;28;19914;-78
2023/02/18 13:28:08;;;;;;;8.70;1.25;;;;;;;;;;4982098;28;20521;-76
2023/02/18 13:30:46;;;;;;;5.45;2.75;;;;;;;;;;4983451;28;20391;-76
2023/02/18 13:33:33;;;;;;;6.43;2.45;;;;;;;;;;4980077;28;20084;-77
2023/02/18 13:36:16;;;;;;;6.40;2.20;;;;;;;;;;4985034;28;20047;-79
2023/02/18 13:39:02;;;;;;;4.25;1.30;;;;;;;;;;4983665;28;20022;-77
2023/02/18 13:41:28;;;;;;;4.55;1.92;;;;;;;;;;4977390;28;20050;-75
2023/02/18 13:43:54;;;;;;;6.82;1.70;;;;;;;;;;4982823;28;20022;-75
2023/02/18 13:46:21;;;;;;;6.93;2.17;;;;;;;;;;4987393;28;20026;-78
2023/02/18 13:49:03;;;;;;;4.28;1.33;;;;;;;;;;4987100;28;20034;-82
2023/02/18 13:51:33;;;;;;;3.80;1.88;;;;;;;;;;4986773;28;20022;-81
2023/02/18 13:54:02;;;;;;;6.68;1.67;;;;;;;;;;4990267;28;20179;-81
2023/02/18 13:56:30;;;;;;;9.57;1.85;;;;;;;;;;4985266;28;20026;-80
2023/02/18 13:59:08;;;;;;;8.60;1.67;;;;;;;;;;4992444;28;20030;-79
2023/02/18 14:01:36;;;;;;;11.38;1.45;;;;;;;;;;4985907;28;20291;-77
2023/02/18 14:04:03;;;;;;;5.63;1.58;;;;;;;;;;4983439;28;20038;-79
2023/02/18 14:06:30;;;;;;;4.38;1.73;;;;;;;;;;4983062;28;20034;-77
2023/02/18 14:09:12;;;;;;;7.75;1.55;;;;;;;;;;4988410;28;20026;-79
2023/02/18 14:12:14;;;;;;;2.38;1.45;;;;;;;;;;4983245;28;20050;-85
2023/02/18 14:14:40;;;;;;;2.40;1.10;;;;;;;;;;4979490;28;20035;-79
2023/02/18 14:17:18;;;;;;;2.45;1.65;;;;;;;;;;4979236;28;20026;-79
2023/02/18 14:19:54;;;;;;;4.13;1.45;;;;;;;;;;4980958;28;20037;-79
2023/02/18 14:22:32;;;;;;;2.72;1.25;;;;;;;;;;4985326;28;20084;-82
2023/02/18 14:25:07;;;;;;;5.47;1.23;;;;;;;;;;4987012;28;20022;-79
2023/02/18 14:27:34;;;;;;;4.78;1.65;;;;;;;;;;4979145;28;20038;-79
2023/02/18 14:30:07;;;;;;;4.05;1.00;;;;;;;;;;4981877;28;20031;-78
2023/02/18 14:32:33;;;;;;;1.77;1.20;;;;;;;;;;4987028;28;20042;-81
2023/02/18 14:35:12;;;;;;;3.05;1.08;;;;;;;;;;4978000;28;20034;-79
2023/02/18 14:37:41;;;;;;;2.10;1.05;;;;;;;;;;4978224;28;20466;-79
2023/02/18 14:40:16;;;;;;;3.35;1.25;;;;;;;;;;4983066;28;20022;-78
2023/02/18 14:42:48;;;;;;;7.80;1.20;;;;;;;;;;4988017;28;20114;-78
2023/02/18 14:45:21;;;;;;;6.25;1.05;;;;;;;;;;4984005;28;20037;-80
2023/02/18 14:47:47;;;;;;;5.07;1.30;;;;;;;;;;4967153;28;20128;-79
2023/02/18 14:50:16;;;;;;;2.03;1.45;;;;;;;;;;4975170;28;20046;-79
2023/02/18 14:52:44;;;;;;;5.30;1.65;;;;;;;;;;4978503;28;20482;-79
2023/02/18 14:55:17;;;;;;;1.25;0.82;;;;;;;;;;4978386;28;20034;-79
2023/02/18 14:57:55;;;;;;;1.20;1.10;;;;;;;;;;4987698;28;20062;-79
2023/02/18 15:00:23;;;;;;;2.45;0.82;;;;;;;;;;4985753;28;20022;-79